sensor_id;sensor_type;location;lat;lon;timestamp;temperature;humidity
1568;DHT22;777;47.156;8.326;2022-12-29T00:00:55;2.10;99.90
1568;DHT22;777;47.156;8.326;2022-12-29T00:03:22;2.20;99.90
1568;DHT22;777;47.156;8.326;2022-12-29T00:05:54;2.20;99.90
1568;DHT22;777;47.156;8.326;2022-12-29T00:08:21;2.10;99.90
1568;DHT22;777;47.156;8.326;2022-12-29T00:11:05;2.00;99.90
1568;DHT22;777;47.156;8.326;2022-12-29T00:13:32;2.00;99.90
1568;DHT22;777;47.156;8.326;2022-12-29T00:16:18;2.00;99.90
1568;DHT22;777;47.156;8.326;2022-12-29T00:18:45;2.10;99.90
1568;DHT22;777;47.156;8.326;2022-12-29T00:21:14;2.20;99.90
1568;DHT22;777;47.156;8.326;2022-12-29T00:23:59;2.50;99.90
1568;DHT22;777;47.156;8.326;2022-12-29T00:26:43;2.70;99.90
1568;DHT22;777;47.156;8.326;2022-12-29T00:29:29;2.90;99.90
1568;DHT22;777;47.156;8.326;2022-12-29T00:32:14;3.00;99.90
1568;DHT22;777;47.156;8.326;2022-12-29T00:34:59;3.10;99.90
1568;DHT22;777;47.156;8.326;2022-12-29T00:37:44;3.10;99.90
1568;DHT22;777;47.156;8.326;2022-12-29T00:40:30;3.10;99.90
1568;DHT22;777;47.156;8.326;2022-12-29T00:43:14;3.10;99.90
1568;DHT22;777;47.156;8.326;2022-12-29T00:45:58;3.10;99.90
1568;DHT22;777;47.156;8.326;2022-12-29T00:48:27;3.00;99.90
1568;DHT22;777;47.156;8.326;2022-12-29T00:51:11;3.00;99.90
1568;DHT22;777;47.156;8.326;2022-12-29T00:53:38;3.00;99.90
1568;DHT22;777;47.156;8.326;2022-12-29T00:56:06;3.00;99.90
1568;DHT22;777;47.156;8.326;2022-12-29T00:58:33;3.00;99.90
1568;DHT22;777;47.156;8.326;2022-12-29T01:01:01;2.90;99.90
1568;DHT22;777;47.156;8.326;2022-12-29T01:03:30;2.90;99.90
1568;DHT22;777;47.156;8.326;2022-12-29T01:06:00;2.90;99.90
1568;DHT22;777;47.156;8.326;2022-12-29T01:08:27;2.90;99.90
1568;DHT22;777;47.156;8.326;2022-12-29T01:11:01;2.90;99.90
1568;DHT22;777;47.156;8.326;2022-12-29T01:13:27;2.70;99.90
1568;DHT22;777;47.156;8.326;2022-12-29T01:15:54;2.50;99.90
1568;DHT22;777;47.156;8.326;2022-12-29T01:18:22;2.50;99.90
1568;DHT22;777;47.156;8.326;2022-12-29T01:20:58;2.40;99.90
1568;DHT22;777;47.156;8.326;2022-12-29T01:23:25;2.40;99.90
1568;DHT22;777;47.156;8.326;2022-12-29T01:25:52;2.30;99.90
1568;DHT22;777;47.156;8.326;2022-12-29T01:28:19;2.20;99.90
1568;DHT22;777;47.156;8.326;2022-12-29T01:30:46;2.20;99.90
1568;DHT22;777;47.156;8.326;2022-12-29T01:33:14;2.30;99.90
1568;DHT22;777;47.156;8.326;2022-12-29T01:35:41;2.40;99.90
1568;DHT22;777;47.156;8.326;2022-12-29T01:38:09;2.30;99.90
1568;DHT22;777;47.156;8.326;2022-12-29T01:40:43;2.40;99.90
1568;DHT22;777;47.156;8.326;2022-12-29T01:43:13;2.40;99.90
1568;DHT22;777;47.156;8.326;2022-12-29T01:45:44;2.50;99.90
1568;DHT22;777;47.156;8.326;2022-12-29T01:48:14;2.40;99.90
1568;DHT22;777;47.156;8.326;2022-12-29T01:50:45;2.40;99.90
1568;DHT22;777;47.156;8.326;2022-12-29T01:53:19;2.40;99.90
1568;DHT22;777;47.156;8.326;2022-12-29T01:55:49;2.40;99.90
1568;DHT22;777;47.156;8.326;2022-12-29T01:58:20;2.40;99.90
1568;DHT22;777;47.156;8.326;2022-12-29T02:00:48;2.30;99.90
1568;DHT22;777;47.156;8.326;2022-12-29T02:03:16;2.30;99.90
1568;DHT22;777;47.156;8.326;2022-12-29T02:05:49;2.40;99.90
1568;DHT22;777;47.156;8.326;2022-12-29T02:08:20;2.40;99.90
1568;DHT22;777;47.156;8.326;2022-12-29T02:10:50;2.50;99.90
1568;DHT22;777;47.156;8.326;2022-12-29T02:13:23;2.50;99.90
1568;DHT22;777;47.156;8.326;2022-12-29T02:15:58;2.50;99.90
1568;DHT22;777;47.156;8.326;2022-12-29T02:18:37;2.50;99.90
1568;DHT22;777;47.156;8.326;2022-12-29T02:21:45;2.50;99.90
1568;DHT22;777;47.156;8.326;2022-12-29T02:24:40;2.60;99.90
1568;DHT22;777;47.156;8.326;2022-12-29T02:27:32;2.50;99.90
1568;DHT22;777;47.156;8.326;2022-12-29T02:30:07;2.60;99.90
1568;DHT22;777;47.156;8.326;2022-12-29T02:32:44;2.50;99.90
1568;DHT22;777;47.156;8.326;2022-12-29T02:35:22;2.60;99.90
1568;DHT22;777;47.156;8.326;2022-12-29T02:38:00;2.70;99.90
1568;DHT22;777;47.156;8.326;2022-12-29T02:40:37;2.60;99.90
1568;DHT22;777;47.156;8.326;2022-12-29T02:43:14;2.60;99.90
1568;DHT22;777;47.156;8.326;2022-12-29T02:45:50;2.70;99.90
1568;DHT22;777;47.156;8.326;2022-12-29T02:48:24;2.70;99.90
1568;DHT22;777;47.156;8.326;2022-12-29T02:50:56;2.80;99.90
1568;DHT22;777;47.156;8.326;2022-12-29T02:53:25;2.80;99.90
1568;DHT22;777;47.156;8.326;2022-12-29T02:56:06;2.90;99.90
1568;DHT22;777;47.156;8.326;2022-12-29T02:58:33;2.90;99.90
1568;DHT22;777;47.156;8.326;2022-12-29T03:01:14;2.90;99.90
1568;DHT22;777;47.156;8.326;2022-12-29T03:04:01;3.00;99.90
1568;DHT22;777;47.156;8.326;2022-12-29T03:06:34;3.10;99.90
1568;DHT22;777;47.156;8.326;2022-12-29T03:09:11;3.10;99.90
1568;DHT22;777;47.156;8.326;2022-12-29T03:11:50;3.10;99.90
1568;DHT22;777;47.156;8.326;2022-12-29T03:14:44;3.10;99.90
1568;DHT22;777;47.156;8.326;2022-12-29T03:17:36;3.10;99.90
1568;DHT22;777;47.156;8.326;2022-12-29T03:20:10;3.10;99.90
1568;DHT22;777;47.156;8.326;2022-12-29T03:22:43;3.00;99.90
1568;DHT22;777;47.156;8.326;2022-12-29T03:25:16;3.00;99.90
1568;DHT22;777;47.156;8.326;2022-12-29T03:27:48;3.00;99.90
1568;DHT22;777;47.156;8.326;2022-12-29T03:30:17;3.00;99.90
1568;DHT22;777;47.156;8.326;2022-12-29T03:32:49;3.00;99.90
1568;DHT22;777;47.156;8.326;2022-12-29T03:35:20;3.00;99.90
1568;DHT22;777;47.156;8.326;2022-12-29T03:37:52;3.00;99.90
1568;DHT22;777;47.156;8.326;2022-12-29T03:40:23;3.10;99.90
1568;DHT22;777;47.156;8.326;2022-12-29T03:42:53;3.10;99.90
1568;DHT22;777;47.156;8.326;2022-12-29T03:45:20;3.10;99.90
1568;DHT22;777;47.156;8.326;2022-12-29T03:47:47;3.10;99.90
1568;DHT22;777;47.156;8.326;2022-12-29T03:50:15;3.10;99.90
1568;DHT22;777;47.156;8.326;2022-12-29T03:52:44;3.10;99.90
1568;DHT22;777;47.156;8.326;2022-12-29T03:55:11;3.10;99.90
1568;DHT22;777;47.156;8.326;2022-12-29T03:57:39;3.20;99.90
1568;DHT22;777;47.156;8.326;2022-12-29T04:00:11;3.10;99.90
1568;DHT22;777;47.156;8.326;2022-12-29T04:02:41;2.90;99.90
1568;DHT22;777;47.156;8.326;2022-12-29T04:05:12;2.90;99.90
1568;DHT22;777;47.156;8.326;2022-12-29T04:07:39;2.80;99.90
1568;DHT22;777;47.156;8.326;2022-12-29T04:10:08;2.80;99.90
1568;DHT22;777;47.156;8.326;2022-12-29T04:12:36;2.80;99.90
1568;DHT22;777;47.156;8.326;2022-12-29T04:15:03;2.80;99.90
1568;DHT22;777;47.156;8.326;2022-12-29T04:17:32;2.80;99.90
1568;DHT22;777;47.156;8.326;2022-12-29T04:19:59;2.80;99.90
1568;DHT22;777;47.156;8.326;2022-12-29T04:22:40;2.90;99.90
1568;DHT22;777;47.156;8.326;2022-12-29T04:25:09;3.00;99.90
1568;DHT22;777;47.156;8.326;2022-12-29T04:27:36;2.90;99.90
1568;DHT22;777;47.156;8.326;2022-12-29T04:30:24;3.00;99.90
1568;DHT22;777;47.156;8.326;2022-12-29T04:33:11;3.00;99.90
1568;DHT22;777;47.156;8.326;2022-12-29T04:35:41;3.10;99.90
1568;DHT22;777;47.156;8.326;2022-12-29T04:38:09;3.10;99.90
1568;DHT22;777;47.156;8.326;2022-12-29T04:40:39;3.10;99.90
1568;DHT22;777;47.156;8.326;2022-12-29T04:43:07;3.10;99.90
1568;DHT22;777;47.156;8.326;2022-12-29T04:45:43;3.10;99.90
1568;DHT22;777;47.156;8.326;2022-12-29T04:48:23;3.10;99.90
1568;DHT22;777;47.156;8.326;2022-12-29T04:51:10;3.10;99.90
1568;DHT22;777;47.156;8.326;2022-12-29T04:53:39;3.20;99.90
1568;DHT22;777;47.156;8.326;2022-12-29T04:56:08;3.20;99.90
1568;DHT22;777;47.156;8.326;2022-12-29T04:58:36;3.30;99.90
1568;DHT22;777;47.156;8.326;2022-12-29T05:01:04;3.40;99.90
1568;DHT22;777;47.156;8.326;2022-12-29T05:03:31;3.50;99.90
1568;DHT22;777;47.156;8.326;2022-12-29T05:05:58;3.60;99.90
1568;DHT22;777;47.156;8.326;2022-12-29T05:08:26;3.70;99.90
1568;DHT22;777;47.156;8.326;2022-12-29T05:10:53;3.70;99.90
1568;DHT22;777;47.156;8.326;2022-12-29T05:13:21;3.90;99.90
1568;DHT22;777;47.156;8.326;2022-12-29T05:15:50;4.00;99.90
1568;DHT22;777;47.156;8.326;2022-12-29T05:18:18;4.20;99.90
1568;DHT22;777;47.156;8.326;2022-12-29T05:20:46;4.20;99.90
1568;DHT22;777;47.156;8.326;2022-12-29T05:23:13;4.10;99.90
1568;DHT22;777;47.156;8.326;2022-12-29T05:25:43;4.00;99.90
1568;DHT22;777;47.156;8.326;2022-12-29T05:28:19;4.00;99.90
1568;DHT22;777;47.156;8.326;2022-12-29T05:30:57;4.20;99.90
1568;DHT22;777;47.156;8.326;2022-12-29T05:33:24;4.20;99.90
1568;DHT22;777;47.156;8.326;2022-12-29T05:35:51;4.20;99.90
1568;DHT22;777;47.156;8.326;2022-12-29T05:38:19;4.20;99.90
1568;DHT22;777;47.156;8.326;2022-12-29T05:40:46;4.20;99.90
1568;DHT22;777;47.156;8.326;2022-12-29T05:43:32;4.30;99.90
1568;DHT22;777;47.156;8.326;2022-12-29T05:46:21;4.30;99.90
1568;DHT22;777;47.156;8.326;2022-12-29T05:49:17;4.40;99.90
1568;DHT22;777;47.156;8.326;2022-12-29T05:51:54;4.40;99.90
1568;DHT22;777;47.156;8.326;2022-12-29T05:54:21;4.40;99.90
1568;DHT22;777;47.156;8.326;2022-12-29T05:56:49;4.40;99.90
1568;DHT22;777;47.156;8.326;2022-12-29T05:59:16;4.50;99.90
1568;DHT22;777;47.156;8.326;2022-12-29T06:01:45;4.50;99.90
1568;DHT22;777;47.156;8.326;2022-12-29T06:04:12;4.60;99.90
1568;DHT22;777;47.156;8.326;2022-12-29T06:06:39;4.60;99.90
1568;DHT22;777;47.156;8.326;2022-12-29T06:09:11;4.40;99.90
1568;DHT22;777;47.156;8.326;2022-12-29T06:11:38;4.40;99.90
1568;DHT22;777;47.156;8.326;2022-12-29T06:14:05;4.40;99.90
1568;DHT22;777;47.156;8.326;2022-12-29T06:16:33;4.50;99.90
1568;DHT22;777;47.156;8.326;2022-12-29T06:19:03;4.50;99.90
1568;DHT22;777;47.156;8.326;2022-12-29T06:21:31;4.70;99.90
1568;DHT22;777;47.156;8.326;2022-12-29T06:24:00;4.70;99.90
1568;DHT22;777;47.156;8.326;2022-12-29T06:26:27;4.70;99.90
1568;DHT22;777;47.156;8.326;2022-12-29T06:28:54;4.60;99.90
1568;DHT22;777;47.156;8.326;2022-12-29T06:31:21;4.50;99.90
1568;DHT22;777;47.156;8.326;2022-12-29T06:33:48;4.50;99.90
1568;DHT22;777;47.156;8.326;2022-12-29T06:36:17;4.50;99.90
1568;DHT22;777;47.156;8.326;2022-12-29T06:38:44;4.50;99.90
1568;DHT22;777;47.156;8.326;2022-12-29T06:41:11;4.50;99.90
1568;DHT22;777;47.156;8.326;2022-12-29T06:43:57;4.40;99.90
1568;DHT22;777;47.156;8.326;2022-12-29T06:46:47;4.40;99.90
1568;DHT22;777;47.156;8.326;2022-12-29T06:49:15;4.40;99.90
1568;DHT22;777;47.156;8.326;2022-12-29T06:51:43;4.40;99.90
1568;DHT22;777;47.156;8.326;2022-12-29T06:54:10;4.40;99.90
1568;DHT22;777;47.156;8.326;2022-12-29T06:56:37;4.40;99.90
1568;DHT22;777;47.156;8.326;2022-12-29T06:59:04;4.40;99.90
1568;DHT22;777;47.156;8.326;2022-12-29T07:01:31;4.50;99.90
1568;DHT22;777;47.156;8.326;2022-12-29T07:03:58;4.50;99.90
1568;DHT22;777;47.156;8.326;2022-12-29T07:06:25;4.50;99.90
1568;DHT22;777;47.156;8.326;2022-12-29T07:08:54;4.40;99.90
1568;DHT22;777;47.156;8.326;2022-12-29T07:11:23;4.40;99.90
1568;DHT22;777;47.156;8.326;2022-12-29T07:13:50;4.40;99.90
1568;DHT22;777;47.156;8.326;2022-12-29T07:16:17;4.50;99.90
1568;DHT22;777;47.156;8.326;2022-12-29T07:18:44;4.50;99.90
1568;DHT22;777;47.156;8.326;2022-12-29T07:21:11;4.50;99.90
1568;DHT22;777;47.156;8.326;2022-12-29T07:23:38;4.50;99.90
1568;DHT22;777;47.156;8.326;2022-12-29T07:26:07;4.50;99.90
1568;DHT22;777;47.156;8.326;2022-12-29T07:28:36;4.50;99.90
1568;DHT22;777;47.156;8.326;2022-12-29T07:31:04;4.50;99.90
1568;DHT22;777;47.156;8.326;2022-12-29T07:33:32;4.40;99.90
1568;DHT22;777;47.156;8.326;2022-12-29T07:35:59;4.40;99.90
1568;DHT22;777;47.156;8.326;2022-12-29T07:38:26;4.40;99.90
1568;DHT22;777;47.156;8.326;2022-12-29T07:40:57;4.50;99.90
1568;DHT22;777;47.156;8.326;2022-12-29T07:43:25;4.50;99.90
1568;DHT22;777;47.156;8.326;2022-12-29T07:46:12;4.50;99.90
1568;DHT22;777;47.156;8.326;2022-12-29T07:48:39;4.50;99.90
1568;DHT22;777;47.156;8.326;2022-12-29T07:51:06;4.50;99.90
1568;DHT22;777;47.156;8.326;2022-12-29T07:53:33;4.60;99.90
1568;DHT22;777;47.156;8.326;2022-12-29T07:56:00;4.60;99.90
1568;DHT22;777;47.156;8.326;2022-12-29T07:58:28;4.60;99.90
1568;DHT22;777;47.156;8.326;2022-12-29T08:00:56;4.70;99.90
1568;DHT22;777;47.156;8.326;2022-12-29T08:03:23;4.70;99.90
1568;DHT22;777;47.156;8.326;2022-12-29T08:05:51;4.80;99.90
1568;DHT22;777;47.156;8.326;2022-12-29T08:08:20;4.90;99.90
1568;DHT22;777;47.156;8.326;2022-12-29T08:10:47;4.80;99.90
1568;DHT22;777;47.156;8.326;2022-12-29T08:13:14;4.90;99.90
1568;DHT22;777;47.156;8.326;2022-12-29T08:15:43;4.90;99.90
1568;DHT22;777;47.156;8.326;2022-12-29T08:18:10;5.00;99.90
1568;DHT22;777;47.156;8.326;2022-12-29T08:20:36;5.00;99.90
1568;DHT22;777;47.156;8.326;2022-12-29T08:23:04;5.00;99.90
1568;DHT22;777;47.156;8.326;2022-12-29T08:25:30;5.00;99.90
1568;DHT22;777;47.156;8.326;2022-12-29T08:27:57;5.00;99.90
1568;DHT22;777;47.156;8.326;2022-12-29T08:30:24;5.10;99.90
1568;DHT22;777;47.156;8.326;2022-12-29T08:32:53;5.10;99.90
1568;DHT22;777;47.156;8.326;2022-12-29T08:35:20;5.20;99.90
1568;DHT22;777;47.156;8.326;2022-12-29T08:37:47;5.20;99.90
1568;DHT22;777;47.156;8.326;2022-12-29T08:40:14;5.30;99.90
1568;DHT22;777;47.156;8.326;2022-12-29T08:42:41;5.30;99.90
1568;DHT22;777;47.156;8.326;2022-12-29T08:45:08;5.30;99.90
1568;DHT22;777;47.156;8.326;2022-12-29T08:47:36;5.40;99.90
1568;DHT22;777;47.156;8.326;2022-12-29T08:50:05;5.40;99.90
1568;DHT22;777;47.156;8.326;2022-12-29T08:52:32;5.40;99.90
1568;DHT22;777;47.156;8.326;2022-12-29T08:54:59;5.40;99.90
1568;DHT22;777;47.156;8.326;2022-12-29T08:57:26;5.40;99.90
1568;DHT22;777;47.156;8.326;2022-12-29T09:00:06;5.50;99.90
1568;DHT22;777;47.156;8.326;2022-12-29T09:02:33;5.60;99.90
1568;DHT22;777;47.156;8.326;2022-12-29T09:05:00;5.80;99.90
1568;DHT22;777;47.156;8.326;2022-12-29T09:07:28;5.90;99.90
1568;DHT22;777;47.156;8.326;2022-12-29T09:09:55;6.10;99.90
1568;DHT22;777;47.156;8.326;2022-12-29T09:12:22;6.20;99.90
1568;DHT22;777;47.156;8.326;2022-12-29T09:14:49;6.30;99.90
1568;DHT22;777;47.156;8.326;2022-12-29T09:17:16;6.40;99.90
1568;DHT22;777;47.156;8.326;2022-12-29T09:20:01;6.60;99.90
1568;DHT22;777;47.156;8.326;2022-12-29T09:22:29;6.90;99.90
1568;DHT22;777;47.156;8.326;2022-12-29T09:24:56;7.10;99.90
1568;DHT22;777;47.156;8.326;2022-12-29T09:27:23;7.20;99.90
1568;DHT22;777;47.156;8.326;2022-12-29T09:29:50;7.40;99.90
1568;DHT22;777;47.156;8.326;2022-12-29T09:32:17;7.60;99.90
1568;DHT22;777;47.156;8.326;2022-12-29T09:34:44;7.90;99.90
1568;DHT22;777;47.156;8.326;2022-12-29T09:37:11;8.10;99.90
1568;DHT22;777;47.156;8.326;2022-12-29T09:39:39;8.40;99.90
1568;DHT22;777;47.156;8.326;2022-12-29T09:42:11;8.70;99.90
1568;DHT22;777;47.156;8.326;2022-12-29T09:44:49;8.70;99.90
1568;DHT22;777;47.156;8.326;2022-12-29T09:47:19;8.90;99.90
1568;DHT22;777;47.156;8.326;2022-12-29T09:49:49;8.80;99.90
1568;DHT22;777;47.156;8.326;2022-12-29T09:52:20;8.90;99.90
1568;DHT22;777;47.156;8.326;2022-12-29T09:54:52;8.90;99.90
1568;DHT22;777;47.156;8.326;2022-12-29T09:57:24;8.80;99.90
1568;DHT22;777;47.156;8.326;2022-12-29T09:59:55;8.80;99.90
1568;DHT22;777;47.156;8.326;2022-12-29T10:02:34;8.70;99.90
1568;DHT22;777;47.156;8.326;2022-12-29T10:05:03;8.70;99.90
1568;DHT22;777;47.156;8.326;2022-12-29T10:07:37;8.70;99.90
1568;DHT22;777;47.156;8.326;2022-12-29T10:10:18;8.60;99.90
1568;DHT22;777;47.156;8.326;2022-12-29T10:13:02;8.70;99.90
1568;DHT22;777;47.156;8.326;2022-12-29T10:15:44;8.70;99.90
1568;DHT22;777;47.156;8.326;2022-12-29T10:18:22;8.80;99.90
1568;DHT22;777;47.156;8.326;2022-12-29T10:21:00;8.90;99.90
1568;DHT22;777;47.156;8.326;2022-12-29T10:23:33;9.00;99.90
1568;DHT22;777;47.156;8.326;2022-12-29T10:26:07;9.00;99.90
1568;DHT22;777;47.156;8.326;2022-12-29T10:28:42;9.00;99.90
1568;DHT22;777;47.156;8.326;2022-12-29T10:31:15;8.90;99.90
1568;DHT22;777;47.156;8.326;2022-12-29T10:33:48;9.00;99.90
1568;DHT22;777;47.156;8.326;2022-12-29T10:36:18;8.90;99.90
1568;DHT22;777;47.156;8.326;2022-12-29T10:38:51;8.90;99.90
1568;DHT22;777;47.156;8.326;2022-12-29T10:41:25;8.90;99.90
1568;DHT22;777;47.156;8.326;2022-12-29T10:43:57;9.00;99.90
1568;DHT22;777;47.156;8.326;2022-12-29T10:46:28;9.00;99.90
1568;DHT22;777;47.156;8.326;2022-12-29T10:48:56;9.20;99.90
1568;DHT22;777;47.156;8.326;2022-12-29T10:51:27;9.30;99.90
1568;DHT22;777;47.156;8.326;2022-12-29T10:53:59;9.50;99.90
1568;DHT22;777;47.156;8.326;2022-12-29T10:56:34;9.40;99.90
1568;DHT22;777;47.156;8.326;2022-12-29T10:59:05;9.30;99.90
1568;DHT22;777;47.156;8.326;2022-12-29T11:01:37;9.10;99.90
1568;DHT22;777;47.156;8.326;2022-12-29T11:04:21;9.00;99.90
1568;DHT22;777;47.156;8.326;2022-12-29T11:06:52;9.20;99.90
1568;DHT22;777;47.156;8.326;2022-12-29T11:09:24;9.40;99.90
1568;DHT22;777;47.156;8.326;2022-12-29T11:11:53;9.60;99.90
1568;DHT22;777;47.156;8.326;2022-12-29T11:14:26;9.90;99.90
1568;DHT22;777;47.156;8.326;2022-12-29T11:16:56;10.10;99.90
1568;DHT22;777;47.156;8.326;2022-12-29T11:19:25;10.20;99.90
1568;DHT22;777;47.156;8.326;2022-12-29T11:21:53;10.20;99.90
1568;DHT22;777;47.156;8.326;2022-12-29T11:24:22;10.20;99.90
1568;DHT22;777;47.156;8.326;2022-12-29T11:26:51;10.20;99.90
1568;DHT22;777;47.156;8.326;2022-12-29T11:29:29;10.10;99.90
1568;DHT22;777;47.156;8.326;2022-12-29T11:32:12;9.80;99.90
1568;DHT22;777;47.156;8.326;2022-12-29T11:34:39;9.90;99.90
1568;DHT22;777;47.156;8.326;2022-12-29T11:37:11;10.10;99.90
1568;DHT22;777;47.156;8.326;2022-12-29T11:39:42;10.20;99.90
1568;DHT22;777;47.156;8.326;2022-12-29T11:42:15;10.10;99.90
1568;DHT22;777;47.156;8.326;2022-12-29T11:44:45;10.00;99.90
1568;DHT22;777;47.156;8.326;2022-12-29T11:47:30;9.60;99.90
1568;DHT22;777;47.156;8.326;2022-12-29T11:50:00;9.40;99.90
1568;DHT22;777;47.156;8.326;2022-12-29T11:52:30;9.30;99.90
1568;DHT22;777;47.156;8.326;2022-12-29T11:55:02;9.20;99.90
1568;DHT22;777;47.156;8.326;2022-12-29T11:57:33;9.20;99.90
1568;DHT22;777;47.156;8.326;2022-12-29T12:00:09;9.30;99.90
1568;DHT22;777;47.156;8.326;2022-12-29T12:02:44;9.40;99.90
1568;DHT22;777;47.156;8.326;2022-12-29T12:05:27;10.00;99.90
1568;DHT22;777;47.156;8.326;2022-12-29T12:08:01;10.20;99.90
1568;DHT22;777;47.156;8.326;2022-12-29T12:10:32;10.40;99.90
1568;DHT22;777;47.156;8.326;2022-12-29T12:13:10;10.50;99.90
1568;DHT22;777;47.156;8.326;2022-12-29T12:15:46;10.60;99.90
1568;DHT22;777;47.156;8.326;2022-12-29T12:18:19;10.60;99.90
1568;DHT22;777;47.156;8.326;2022-12-29T12:20:50;10.50;99.90
1568;DHT22;777;47.156;8.326;2022-12-29T12:23:27;10.60;99.90
1568;DHT22;777;47.156;8.326;2022-12-29T12:25:59;10.60;99.90
1568;DHT22;777;47.156;8.326;2022-12-29T12:28:34;10.60;99.90
1568;DHT22;777;47.156;8.326;2022-12-29T12:31:14;10.50;99.90
1568;DHT22;777;47.156;8.326;2022-12-29T12:33:45;10.40;99.90
1568;DHT22;777;47.156;8.326;2022-12-29T12:36:26;10.40;99.90
1568;DHT22;777;47.156;8.326;2022-12-29T12:39:01;10.60;99.90
1568;DHT22;777;47.156;8.326;2022-12-29T12:41:39;10.70;99.90
1568;DHT22;777;47.156;8.326;2022-12-29T12:44:16;10.90;99.90
1568;DHT22;777;47.156;8.326;2022-12-29T12:46:59;11.40;99.90
1568;DHT22;777;47.156;8.326;2022-12-29T12:49:59;12.00;99.90
1568;DHT22;777;47.156;8.326;2022-12-29T12:52:42;12.50;99.90
1568;DHT22;777;47.156;8.326;2022-12-29T12:55:28;12.50;99.90
1568;DHT22;777;47.156;8.326;2022-12-29T12:58:04;12.20;99.90
1568;DHT22;777;47.156;8.326;2022-12-29T13:00:45;12.10;99.90
1568;DHT22;777;47.156;8.326;2022-12-29T13:03:22;12.20;99.90
1568;DHT22;777;47.156;8.326;2022-12-29T13:06:04;12.20;99.90
1568;DHT22;777;47.156;8.326;2022-12-29T13:08:49;12.10;99.90
1568;DHT22;777;47.156;8.326;2022-12-29T13:11:23;12.00;99.90
1568;DHT22;777;47.156;8.326;2022-12-29T13:14:02;12.80;99.90
1568;DHT22;777;47.156;8.326;2022-12-29T13:16:40;13.90;99.90
1568;DHT22;777;47.156;8.326;2022-12-29T13:19:14;13.90;99.90
1568;DHT22;777;47.156;8.326;2022-12-29T13:21:56;13.30;99.90
1568;DHT22;777;47.156;8.326;2022-12-29T13:24:30;12.70;99.90
1568;DHT22;777;47.156;8.326;2022-12-29T13:27:06;12.20;99.90
1568;DHT22;777;47.156;8.326;2022-12-29T13:29:46;11.80;99.90
1568;DHT22;777;47.156;8.326;2022-12-29T13:32:22;11.40;99.90
1568;DHT22;777;47.156;8.326;2022-12-29T13:35:04;11.20;99.90
1568;DHT22;777;47.156;8.326;2022-12-29T13:37:44;11.00;99.90
1568;DHT22;777;47.156;8.326;2022-12-29T13:40:16;10.90;99.90
1568;DHT22;777;47.156;8.326;2022-12-29T13:42:46;10.70;99.90
1568;DHT22;777;47.156;8.326;2022-12-29T13:45:17;10.60;99.90
1568;DHT22;777;47.156;8.326;2022-12-29T13:47:48;10.40;99.90
1568;DHT22;777;47.156;8.326;2022-12-29T13:50:21;10.40;99.90
1568;DHT22;777;47.156;8.326;2022-12-29T13:52:55;10.20;99.90
1568;DHT22;777;47.156;8.326;2022-12-29T13:55:29;10.20;99.90
1568;DHT22;777;47.156;8.326;2022-12-29T13:58:04;10.00;99.90
1568;DHT22;777;47.156;8.326;2022-12-29T14:00:42;10.00;99.90
1568;DHT22;777;47.156;8.326;2022-12-29T14:03:28;9.90;99.90
1568;DHT22;777;47.156;8.326;2022-12-29T14:06:14;9.90;99.90
1568;DHT22;777;47.156;8.326;2022-12-29T14:08:42;9.90;99.90
1568;DHT22;777;47.156;8.326;2022-12-29T14:11:10;9.80;99.90
1568;DHT22;777;47.156;8.326;2022-12-29T14:13:39;9.70;99.90
1568;DHT22;777;47.156;8.326;2022-12-29T14:16:08;9.70;99.90
1568;DHT22;777;47.156;8.326;2022-12-29T14:18:42;9.60;99.90
1568;DHT22;777;47.156;8.326;2022-12-29T14:21:20;9.60;99.90
1568;DHT22;777;47.156;8.326;2022-12-29T14:23:50;9.50;99.90
1568;DHT22;777;47.156;8.326;2022-12-29T14:26:34;9.60;99.90
1568;DHT22;777;47.156;8.326;2022-12-29T14:29:43;9.50;99.90
1568;DHT22;777;47.156;8.326;2022-12-29T14:32:36;9.40;99.90
1568;DHT22;777;47.156;8.326;2022-12-29T14:35:36;9.40;99.90
1568;DHT22;777;47.156;8.326;2022-12-29T14:38:22;9.40;99.90
1568;DHT22;777;47.156;8.326;2022-12-29T14:40:50;9.30;99.90
1568;DHT22;777;47.156;8.326;2022-12-29T14:43:21;9.20;99.90
1568;DHT22;777;47.156;8.326;2022-12-29T14:45:57;9.10;99.90
1568;DHT22;777;47.156;8.326;2022-12-29T14:48:36;9.00;99.90
1568;DHT22;777;47.156;8.326;2022-12-29T14:51:18;9.00;99.90
1568;DHT22;777;47.156;8.326;2022-12-29T14:53:49;9.00;99.90
1568;DHT22;777;47.156;8.326;2022-12-29T14:56:17;8.90;99.90
1568;DHT22;777;47.156;8.326;2022-12-29T14:58:51;8.80;99.90
1568;DHT22;777;47.156;8.326;2022-12-29T15:01:38;8.70;99.90
1568;DHT22;777;47.156;8.326;2022-12-29T15:04:14;8.70;99.90
1568;DHT22;777;47.156;8.326;2022-12-29T15:06:42;8.60;99.90
1568;DHT22;777;47.156;8.326;2022-12-29T15:09:22;8.60;99.90
1568;DHT22;777;47.156;8.326;2022-12-29T15:11:52;8.50;99.90
1568;DHT22;777;47.156;8.326;2022-12-29T15:14:34;8.50;99.90
1568;DHT22;777;47.156;8.326;2022-12-29T15:17:09;8.50;99.90
1568;DHT22;777;47.156;8.326;2022-12-29T15:19:37;8.50;99.90
1568;DHT22;777;47.156;8.326;2022-12-29T15:22:04;8.40;99.90
1568;DHT22;777;47.156;8.326;2022-12-29T15:24:34;8.40;99.90
1568;DHT22;777;47.156;8.326;2022-12-29T15:27:03;8.30;99.90
1568;DHT22;777;47.156;8.326;2022-12-29T15:29:38;8.30;99.90
1568;DHT22;777;47.156;8.326;2022-12-29T15:32:21;8.20;99.90
1568;DHT22;777;47.156;8.326;2022-12-29T15:34:50;8.20;99.90
1568;DHT22;777;47.156;8.326;2022-12-29T15:37:19;8.20;99.90
1568;DHT22;777;47.156;8.326;2022-12-29T15:39:48;8.20;99.90
1568;DHT22;777;47.156;8.326;2022-12-29T15:42:24;8.20;99.90
1568;DHT22;777;47.156;8.326;2022-12-29T15:44:54;8.10;99.90
1568;DHT22;777;47.156;8.326;2022-12-29T15:47:24;8.20;99.90
1568;DHT22;777;47.156;8.326;2022-12-29T15:49:53;8.20;99.90
1568;DHT22;777;47.156;8.326;2022-12-29T15:52:23;8.20;99.90
1568;DHT22;777;47.156;8.326;2022-12-29T15:54:53;8.10;99.90
1568;DHT22;777;47.156;8.326;2022-12-29T15:57:23;8.10;99.90
1568;DHT22;777;47.156;8.326;2022-12-29T15:59:50;8.20;99.90
1568;DHT22;777;47.156;8.326;2022-12-29T16:02:20;8.20;99.90
1568;DHT22;777;47.156;8.326;2022-12-29T16:04:48;8.20;99.90
1568;DHT22;777;47.156;8.326;2022-12-29T16:07:25;8.10;99.90
1568;DHT22;777;47.156;8.326;2022-12-29T16:09:58;8.00;99.90
1568;DHT22;777;47.156;8.326;2022-12-29T16:12:29;8.00;99.90
1568;DHT22;777;47.156;8.326;2022-12-29T16:14:59;7.90;99.90
1568;DHT22;777;47.156;8.326;2022-12-29T16:17:30;7.80;99.90
1568;DHT22;777;47.156;8.326;2022-12-29T16:19:59;7.80;99.90
1568;DHT22;777;47.156;8.326;2022-12-29T16:22:30;7.70;99.90
1568;DHT22;777;47.156;8.326;2022-12-29T16:25:02;7.70;99.90
1568;DHT22;777;47.156;8.326;2022-12-29T16:27:36;7.70;99.90
1568;DHT22;777;47.156;8.326;2022-12-29T16:30:12;7.70;99.90
1568;DHT22;777;47.156;8.326;2022-12-29T16:32:46;7.70;99.90
1568;DHT22;777;47.156;8.326;2022-12-29T16:35:17;7.80;99.90
1568;DHT22;777;47.156;8.326;2022-12-29T16:37:44;7.80;99.90
1568;DHT22;777;47.156;8.326;2022-12-29T16:40:28;7.80;99.90
1568;DHT22;777;47.156;8.326;2022-12-29T16:42:58;7.80;99.90
1568;DHT22;777;47.156;8.326;2022-12-29T16:48:29;7.70;99.90
1568;DHT22;777;47.156;8.326;2022-12-29T16:51:02;7.70;99.90
1568;DHT22;777;47.156;8.326;2022-12-29T16:53:34;7.70;99.90
1568;DHT22;777;47.156;8.326;2022-12-29T16:56:07;7.80;99.90
1568;DHT22;777;47.156;8.326;2022-12-29T16:58:35;7.80;99.90
1568;DHT22;777;47.156;8.326;2022-12-29T17:01:04;7.80;99.90
1568;DHT22;777;47.156;8.326;2022-12-29T17:03:34;7.80;99.90
1568;DHT22;777;47.156;8.326;2022-12-29T17:06:04;7.80;99.90
1568;DHT22;777;47.156;8.326;2022-12-29T17:08:39;7.90;99.90
1568;DHT22;777;47.156;8.326;2022-12-29T17:11:21;7.90;99.90